Time;durP1;ratioP1;P1;durP2;ratioP2;P2;SDS_P1;SDS_P2;PMS_P1;PMS_P2;Temp;Humidity;BMP_temperature;BMP_pressure;BME280_temperature;BME280_humidity;BME280_pressure;Samples;Min_cycle;Max_cycle;Signal;HPM_P1;HPM_P2
2023/12/18 00:00:30;;;;;;;0.20;0.20;;;8.80;99.90;;;;;;5101080;28;20081;-73
2023/12/18 00:02:56;;;;;;;0.20;0.20;;;8.80;99.90;;;;;;5116764;28;20039;-73
2023/12/18 00:05:21;;;;;;;0.20;0.20;;;8.80;99.90;;;;;;5098172;28;20036;-73
2023/12/18 00:07:47;;;;;;;0.20;0.20;;;8.80;99.90;;;;;;5117378;27;20039;-73
2023/12/18 00:10:12;;;;;;;0.10;0.10;;;8.80;99.90;;;;;;5106973;27;20039;-73
2023/12/18 00:12:38;;;;;;;0.20;0.20;;;8.80;99.90;;;;;;5111568;28;20074;-73
2023/12/18 00:15:06;;;;;;;0.20;0.20;;;8.80;99.90;;;;;;5098245;27;20046;-73
2023/12/18 00:17:32;;;;;;;0.20;0.20;;;8.70;99.90;;;;;;5106128;28;20181;-74
2023/12/18 00:19:59;;;;;;;0.20;0.20;;;8.70;99.90;;;;;;5101527;27;20559;-73
2023/12/18 00:22:24;;;;;;;0.20;0.20;;;8.70;99.90;;;;;;5103314;28;20090;-73
2023/12/18 00:24:50;;;;;;;0.20;0.20;;;8.70;99.90;;;;;;5097836;28;20081;-73
2023/12/18 00:27:15;;;;;;;0.20;0.20;;;8.70;99.90;;;;;;5099781;28;20047;-73
2023/12/18 00:29:41;;;;;;;0.20;0.20;;;8.70;99.90;;;;;;5122716;27;20035;-73
2023/12/18 00:32:07;;;;;;;0.20;0.20;;;8.70;99.90;;;;;;5103232;27;20061;-73
2023/12/18 00:34:33;;;;;;;0.20;0.20;;;8.70;99.90;;;;;;5096246;27;20047;-73
2023/12/18 00:36:58;;;;;;;0.20;0.20;;;8.70;99.90;;;;;;5112294;27;20430;-73
2023/12/18 00:39:24;;;;;;;0.10;0.10;;;8.70;99.90;;;;;;5104554;27;20071;-73
2023/12/18 00:41:51;;;;;;;0.17;0.17;;;8.60;99.90;;;;;;5102654;27;20047;-73
2023/12/18 00:44:17;;;;;;;0.20;0.20;;;8.70;99.90;;;;;;5110033;28;20043;-73
2023/12/18 00:46:43;;;;;;;0.20;0.20;;;8.70;99.90;;;;;;5119574;27;20058;-73
2023/12/18 00:49:09;;;;;;;0.20;0.20;;;8.70;99.90;;;;;;5106150;27;20603;-74
2023/12/18 00:51:34;;;;;;;0.20;0.20;;;8.70;99.90;;;;;;5102870;27;20127;-73
2023/12/18 00:54:00;;;;;;;0.20;0.20;;;8.70;99.90;;;;;;5100777;27;20059;-73
2023/12/18 00:56:26;;;;;;;0.10;0.10;;;8.70;99.90;;;;;;5099467;28;20054;-73
2023/12/18 00:58:52;;;;;;;0.20;0.20;;;8.70;99.90;;;;;;5106127;28;20036;-73
2023/12/18 01:01:17;;;;;;;0.20;0.20;;;8.80;99.90;;;;;;5098826;28;20050;-73
2023/12/18 01:03:43;;;;;;;0.20;0.20;;;8.70;99.90;;;;;;5095861;28;20047;-73
2023/12/18 01:06:09;;;;;;;0.20;0.20;;;8.70;99.90;;;;;;5094581;28;20079;-74
2023/12/18 01:08:34;;;;;;;0.20;0.20;;;8.70;99.90;;;;;;5108313;27;20075;-73
2023/12/18 01:11:00;;;;;;;0.15;0.15;;;8.70;99.90;;;;;;5108882;28;20031;-74
2023/12/18 01:13:26;;;;;;;0.20;0.20;;;8.80;99.90;;;;;;5106804;28;20040;-73
2023/12/18 01:15:52;;;;;;;0.20;0.20;;;8.70;99.90;;;;;;5104238;27;20048;-73
2023/12/18 01:18:17;;;;;;;0.20;0.20;;;8.70;99.90;;;;;;5108324;28;20131;-73
2023/12/18 01:20:43;;;;;;;0.20;0.20;;;8.70;99.90;;;;;;5104719;27;20043;-74
2023/12/18 01:23:08;;;;;;;0.20;0.20;;;8.70;99.90;;;;;;5097698;28;20372;-73
2023/12/18 01:25:34;;;;;;;0.10;0.10;;;8.70;99.90;;;;;;5115931;27;20581;-73
2023/12/18 01:28:00;;;;;;;0.20;0.20;;;8.70;99.90;;;;;;5099755;28;20122;-73
2023/12/18 01:30:26;;;;;;;0.20;0.20;;;8.70;99.90;;;;;;5103527;28;20135;-73
2023/12/18 01:32:52;;;;;;;0.10;0.10;;;8.80;99.90;;;;;;5099587;27;20043;-73
2023/12/18 01:35:17;;;;;;;0.20;0.20;;;8.70;99.90;;;;;;5104509;28;20035;-73
2023/12/18 01:37:43;;;;;;;0.10;0.10;;;8.80;99.90;;;;;;5096587;27;20035;-73
2023/12/18 01:40:09;;;;;;;0.20;0.20;;;8.70;99.90;;;;;;5119613;27;20070;-73
2023/12/18 01:42:35;;;;;;;0.10;0.10;;;8.80;99.90;;;;;;5103842;28;20050;-73
2023/12/18 01:45:00;;;;;;;0.10;0.10;;;8.80;99.90;;;;;;5097622;28;20354;-73
2023/12/18 01:47:26;;;;;;;0.20;0.20;;;8.80;99.90;;;;;;5100073;28;20063;-73
2023/12/18 01:49:52;;;;;;;0.20;0.20;;;8.80;99.90;;;;;;5100863;28;20052;-73
2023/12/18 01:52:18;;;;;;;0.20;0.20;;;8.80;99.90;;;;;;5098393;28;20093;-73
2023/12/18 01:54:45;;;;;;;0.20;0.20;;;8.80;99.90;;;;;;5104872;28;20048;-75
2023/12/18 01:57:12;;;;;;;0.20;0.20;;;8.80;99.90;;;;;;5102476;27;20050;-72
2023/12/18 01:59:39;;;;;;;0.17;0.17;;;8.70;99.90;;;;;;5121252;27;20413;-73
2023/12/18 02:02:05;;;;;;;0.10;0.10;;;8.80;99.90;;;;;;5099427;27;20127;-72
2023/12/18 02:04:31;;;;;;;0.10;0.10;;;8.80;99.90;;;;;;5093359;28;20127;-74
2023/12/18 02:07:00;;;;;;;0.13;0.13;;;8.80;99.90;;;;;;5099705;28;20040;-73
2023/12/18 02:09:26;;;;;;;0.10;0.10;;;8.80;99.90;;;;;;5112168;27;20046;-73
2023/12/18 02:11:52;;;;;;;0.17;0.17;;;8.80;99.90;;;;;;5103983;28;20085;-73
2023/12/18 02:14:18;;;;;;;0.20;0.20;;;8.80;99.90;;;;;;5105157;27;20435;-73
2023/12/18 02:16:43;;;;;;;0.20;0.20;;;8.80;99.90;;;;;;5100457;27;21079;-73
2023/12/18 02:19:27;;;;;;;0.20;0.20;;;8.70;99.90;;;;;;5108222;28;20039;-73
2023/12/18 02:21:54;;;;;;;0.20;0.20;;;8.70;99.90;;;;;;5099879;28;20461;-72
2023/12/18 02:24:19;;;;;;;0.20;0.20;;;8.70;99.90;;;;;;5127112;27;20887;-73
2023/12/18 02:26:46;;;;;;;0.20;0.20;;;8.70;99.90;;;;;;5107204;28;20072;-73
2023/12/18 02:29:11;;;;;;;0.20;0.20;;;8.80;99.90;;;;;;5097011;27;20042;-73
2023/12/18 02:31:37;;;;;;;0.20;0.20;;;8.80;99.90;;;;;;5104789;28;20398;-73
2023/12/18 02:34:03;;;;;;;0.10;0.10;;;8.80;99.90;;;;;;5101328;27;20742;-73
2023/12/18 02:36:29;;;;;;;0.20;0.20;;;8.80;99.90;;;;;;5105005;28;20047;-73
2023/12/18 02:38:54;;;;;;;0.20;0.20;;;8.80;99.90;;;;;;5093041;28;20481;-73
2023/12/18 02:41:20;;;;;;;0.45;0.32;;;8.80;99.90;;;;;;5094144;28;20126;-73
2023/12/18 02:43:46;;;;;;;0.20;0.20;;;8.80;99.90;;;;;;5095298;28;20478;-73
2023/12/18 02:46:12;;;;;;;0.17;0.17;;;8.70;99.90;;;;;;5092317;28;20048;-73
2023/12/18 02:48:37;;;;;;;0.10;0.10;;;8.80;99.90;;;;;;5093168;28;20525;-73
2023/12/18 02:51:03;;;;;;;0.10;0.10;;;8.80;99.90;;;;;;5098452;27;20055;-73
2023/12/18 02:53:29;;;;;;;0.20;0.20;;;8.80;99.90;;;;;;5106049;28;20078;-73
2023/12/18 02:55:55;;;;;;;0.20;0.20;;;8.70;99.90;;;;;;5091161;28;20063;-73
2023/12/18 02:58:22;;;;;;;0.20;0.20;;;8.80;99.90;;;;;;5094067;27;20062;-73
2023/12/18 03:00:48;;;;;;;0.20;0.20;;;8.80;99.90;;;;;;5100715;28;20061;-73
2023/12/18 03:03:14;;;;;;;0.10;0.10;;;8.80;99.90;;;;;;5108601;28;20047;-73
2023/12/18 03:05:40;;;;;;;0.20;0.20;;;8.80;99.90;;;;;;5095303;28;20043;-73
2023/12/18 03:08:06;;;;;;;0.20;0.20;;;8.80;99.90;;;;;;5096556;27;20090;-73
2023/12/18 03:10:31;;;;;;;0.10;0.10;;;8.80;99.90;;;;;;5097865;28;20047;-73
2023/12/18 03:12:57;;;;;;;0.17;0.17;;;8.80;99.90;;;;;;5094236;27;20479;-73
2023/12/18 03:15:23;;;;;;;0.20;0.20;;;8.80;99.90;;;;;;5102260;28;20046;-73
2023/12/18 03:17:49;;;;;;;0.10;0.10;;;8.80;99.90;;;;;;5106989;28;20040;-72
2023/12/18 03:20:14;;;;;;;0.20;0.20;;;8.80;99.90;;;;;;5092512;28;20043;-72
2023/12/18 03:22:40;;;;;;;0.20;0.20;;;8.80;99.90;;;;;;5096871;28;20092;-73
2023/12/18 03:25:06;;;;;;;0.20;0.20;;;8.80;99.90;;;;;;5101080;27;20058;-72
2023/12/18 03:27:32;;;;;;;0.10;0.10;;;8.90;99.90;;;;;;5105274;28;20130;-72
2023/12/18 03:29:57;;;;;;;0.20;0.20;;;8.80;99.90;;;;;;5099943;28;20170;-73
2023/12/18 03:32:23;;;;;;;0.20;0.20;;;8.90;99.90;;;;;;5093871;28;20138;-72
2023/12/18 03:34:49;;;;;;;0.20;0.20;;;8.80;99.90;;;;;;5109847;27;20035;-73
2023/12/18 03:37:14;;;;;;;0.20;0.20;;;8.90;99.90;;;;;;5103645;28;20112;-73
2023/12/18 03:39:40;;;;;;;0.20;0.20;;;8.80;99.90;;;;;;5110548;28;20116;-73
2023/12/18 03:42:06;;;;;;;0.20;0.20;;;8.80;99.90;;;;;;5106238;28;20417;-73
2023/12/18 03:44:31;;;;;;;0.10;0.10;;;8.80;99.90;;;;;;5099221;28;20048;-74
2023/12/18 03:46:57;;;;;;;0.20;0.20;;;8.80;99.90;;;;;;5090063;28;20055;-73
2023/12/18 03:49:26;;;;;;;0.20;0.20;;;8.80;99.90;;;;;;5092742;28;20043;-73
2023/12/18 03:51:52;;;;;;;0.20;0.20;;;8.80;99.90;;;;;;5091865;28;20112;-73
2023/12/18 03:54:18;;;;;;;0.20;0.20;;;8.80;99.90;;;;;;5091518;28;20700;-73
2023/12/18 03:56:43;;;;;;;0.20;0.20;;;8.90;99.90;;;;;;5091440;28;20059;-73
2023/12/18 03:59:09;;;;;;;0.20;0.20;;;8.80;99.90;;;;;;5096783;28;20043;-73
2023/12/18 04:01:36;;;;;;;0.13;0.13;;;8.80;99.90;;;;;;5123557;28;20127;-73
2023/12/18 04:04:02;;;;;;;0.20;0.20;;;8.90;99.90;;;;;;5108447;28;20112;-73
2023/12/18 04:06:28;;;;;;;0.10;0.10;;;8.90;99.90;;;;;;5098472;28;20067;-72
2023/12/18 04:08:54;;;;;;;0.10;0.10;;;8.90;99.90;;;;;;5107120;28;20474;-73
2023/12/18 04:11:21;;;;;;;0.20;0.20;;;8.90;99.90;;;;;;5102992;28;20043;-72
2023/12/18 04:13:47;;;;;;;0.20;0.20;;;8.90;99.90;;;;;;5094009;28;20482;-73
2023/12/18 04:16:14;;;;;;;0.10;0.10;;;8.90;99.90;;;;;;5101352;28;20427;-72
2023/12/18 04:18:39;;;;;;;0.20;0.20;;;8.90;99.90;;;;;;5093910;28;20063;-73
2023/12/18 04:21:05;;;;;;;0.10;0.10;;;8.90;99.90;;;;;;5106999;28;20040;-73
2023/12/18 04:23:31;;;;;;;0.10;0.10;;;8.90;99.90;;;;;;5093325;28;20054;-72
2023/12/18 04:25:56;;;;;;;0.20;0.20;;;8.90;99.90;;;;;;5095261;28;20073;-72
2023/12/18 04:28:22;;;;;;;0.20;0.20;;;8.90;99.90;;;;;;5096062;28;20071;-73
2023/12/18 04:30:48;;;;;;;0.15;0.15;;;8.90;99.90;;;;;;5100166;28;20044;-73
2023/12/18 04:33:14;;;;;;;0.17;0.17;;;8.90;99.90;;;;;;5119224;28;20045;-73
2023/12/18 04:35:40;;;;;;;0.13;0.13;;;8.80;99.90;;;;;;5107106;28;20047;-72
2023/12/18 04:38:06;;;;;;;0.10;0.10;;;8.90;99.90;;;;;;5092021;28;20096;-72
2023/12/18 04:40:31;;;;;;;0.20;0.20;;;8.90;99.90;;;;;;5091037;28;20407;-73
2023/12/18 04:42:57;;;;;;;0.10;0.10;;;8.90;99.90;;;;;;5097303;28;20475;-74
2023/12/18 04:45:23;;;;;;;0.20;0.20;;;8.90;99.90;;;;;;5100029;28;20088;-73
2023/12/18 04:47:48;;;;;;;0.20;0.20;;;8.80;99.90;;;;;;5106589;28;20071;-73
2023/12/18 04:50:14;;;;;;;0.10;0.10;;;8.90;99.90;;;;;;5120260;28;20043;-73
2023/12/18 04:52:41;;;;;;;0.20;0.20;;;8.90;99.90;;;;;;5105387;28;20127;-73
2023/12/18 04:55:07;;;;;;;0.10;0.10;;;8.90;99.90;;;;;;5090878;28;20055;-73
2023/12/18 04:57:33;;;;;;;0.10;0.10;;;8.90;99.90;;;;;;5112797;28;20384;-73
2023/12/18 04:59:59;;;;;;;0.20;0.20;;;8.90;99.90;;;;;;5107430;27;20042;-73
2023/12/18 05:02:24;;;;;;;0.17;0.17;;;8.90;99.90;;;;;;5097109;28;20042;-73
2023/12/18 05:04:50;;;;;;;0.20;0.20;;;8.90;99.90;;;;;;5107932;28;20051;-73
2023/12/18 05:07:16;;;;;;;0.20;0.20;;;8.90;99.90;;;;;;5096268;28;20078;-73
2023/12/18 05:09:42;;;;;;;0.10;0.10;;;8.90;99.90;;;;;;5093328;28;20173;-73
2023/12/18 05:12:07;;;;;;;0.20;0.20;;;8.90;99.90;;;;;;5096782;28;20122;-73
2023/12/18 05:14:33;;;;;;;0.20;0.20;;;9.00;99.90;;;;;;5113090;27;20534;-73
2023/12/18 05:16:59;;;;;;;0.20;0.20;;;9.00;99.90;;;;;;5098954;28;20044;-73
2023/12/18 05:19:25;;;;;;;0.10;0.10;;;8.90;99.90;;;;;;5097419;28;20035;-73
2023/12/18 05:21:51;;;;;;;0.20;0.20;;;9.00;99.90;;;;;;5108758;27;20076;-73
2023/12/18 05:24:16;;;;;;;0.20;0.20;;;9.00;99.90;;;;;;5099554;28;20047;-73
2023/12/18 05:26:42;;;;;;;0.20;0.20;;;9.00;99.90;;;;;;5103840;27;20043;-73
2023/12/18 05:29:07;;;;;;;0.20;0.20;;;9.00;99.90;;;;;;5110137;28;20052;-73
2023/12/18 05:31:33;;;;;;;0.20;0.20;;;9.00;99.90;;;;;;5109498;28;20043;-73
2023/12/18 05:33:59;;;;;;;0.20;0.20;;;9.00;99.90;;;;;;5116159;27;20512;-73
2023/12/18 05:36:25;;;;;;;0.20;0.20;;;9.00;99.90;;;;;;5121573;27;20031;-73
2023/12/18 05:38:51;;;;;;;0.20;0.20;;;9.00;99.90;;;;;;5098699;28;20047;-73
2023/12/18 05:41:16;;;;;;;0.20;0.20;;;9.00;99.90;;;;;;5092765;28;20066;-73
2023/12/18 05:43:42;;;;;;;0.20;0.20;;;9.10;99.90;;;;;;5094019;27;20096;-73
2023/12/18 05:46:13;;;;;;;0.20;0.20;;;9.00;99.90;;;;;;5102988;28;20376;-73
2023/12/18 05:48:38;;;;;;;0.10;0.10;;;9.10;99.90;;;;;;5100188;28;20106;-74
2023/12/18 05:51:04;;;;;;;0.10;0.10;;;9.00;99.90;;;;;;5093909;28;20133;-73
2023/12/18 05:53:30;;;;;;;0.13;0.13;;;9.00;99.90;;;;;;5095129;28;20414;-73
2023/12/18 05:55:56;;;;;;;0.10;0.10;;;9.00;99.90;;;;;;5118640;27;20096;-73
2023/12/18 05:58:21;;;;;;;0.10;0.10;;;9.10;99.90;;;;;;5102391;28;20483;-73
2023/12/18 06:00:47;;;;;;;0.20;0.20;;;9.00;99.90;;;;;;5104415;28;20044;-73
2023/12/18 06:03:13;;;;;;;0.20;0.20;;;9.00;99.90;;;;;;5111726;28;20433;-73
2023/12/18 06:05:38;;;;;;;0.20;0.20;;;9.10;99.90;;;;;;5101115;27;20054;-73
2023/12/18 06:08:04;;;;;;;0.20;0.20;;;9.00;99.90;;;;;;5095984;28;20052;-73
2023/12/18 06:10:30;;;;;;;0.17;0.17;;;9.00;99.90;;;;;;5092426;28;20139;-73
2023/12/18 06:12:55;;;;;;;0.20;0.20;;;9.00;99.90;;;;;;5098821;27;20055;-73
2023/12/18 06:15:21;;;;;;;0.10;0.10;;;9.10;99.90;;;;;;5109721;27;20113;-73
2023/12/18 06:17:47;;;;;;;0.10;0.10;;;9.10;99.90;;;;;;5096229;28;20060;-73
2023/12/18 06:20:12;;;;;;;0.20;0.20;;;9.10;99.90;;;;;;5109433;27;20073;-73
2023/12/18 06:22:38;;;;;;;0.10;0.10;;;9.10;99.90;;;;;;5109819;28;20079;-73
2023/12/18 06:25:04;;;;;;;0.20;0.20;;;9.10;99.90;;;;;;5092279;28;20043;-73
2023/12/18 06:27:30;;;;;;;0.17;0.17;;;9.10;99.90;;;;;;5107018;27;20491;-74
2023/12/18 06:29:55;;;;;;;0.20;0.20;;;9.10;99.90;;;;;;5106978;27;20073;-73
2023/12/18 06:32:21;;;;;;;0.10;0.10;;;9.10;99.90;;;;;;5099703;27;20535;-73
2023/12/18 06:34:46;;;;;;;0.10;0.10;;;9.10;99.90;;;;;;5108616;28;20051;-75
2023/12/18 06:37:12;;;;;;;0.20;0.20;;;9.10;99.90;;;;;;5116325;27;20044;-74
2023/12/18 06:39:38;;;;;;;0.20;0.20;;;9.20;99.90;;;;;;5121402;27;20045;-74
2023/12/18 06:42:04;;;;;;;0.13;0.13;;;9.10;99.90;;;;;;5096429;28;20047;-73
2023/12/18 06:44:30;;;;;;;0.20;0.20;;;9.10;99.90;;;;;;5118865;27;20043;-74
2023/12/18 06:46:56;;;;;;;0.20;0.20;;;9.10;99.90;;;;;;5097365;28;20058;-74
2023/12/18 06:49:21;;;;;;;0.20;0.20;;;9.20;99.90;;;;;;5099871;28;20040;-74
2023/12/18 06:51:49;;;;;;;0.15;0.15;;;9.10;99.90;;;;;;5118629;27;20496;-73
2023/12/18 06:54:16;;;;;;;0.20;0.20;;;9.20;99.90;;;;;;5102153;28;20048;-73
2023/12/18 06:56:41;;;;;;;0.20;0.20;;;9.10;99.90;;;;;;5114006;27;20050;-74
2023/12/18 06:59:07;;;;;;;0.20;0.20;;;9.10;99.90;;;;;;5106889;28;20399;-73
2023/12/18 07:01:33;;;;;;;0.10;0.10;;;9.10;99.90;;;;;;5110761;27;20035;-73
2023/12/18 07:03:59;;;;;;;0.20;0.20;;;9.10;99.90;;;;;;5107940;27;20043;-78
2023/12/18 07:06:25;;;;;;;0.15;0.15;;;9.20;99.90;;;;;;5098628;28;20039;-72
2023/12/18 07:08:50;;;;;;;0.20;0.20;;;9.10;99.90;;;;;;5100178;28;20048;-73
2023/12/18 07:11:16;;;;;;;0.30;0.30;;;9.10;99.90;;;;;;5116108;27;20490;-72
2023/12/18 07:13:41;;;;;;;0.20;0.20;;;9.10;99.90;;;;;;5114897;27;20418;-72
2023/12/18 07:16:07;;;;;;;0.17;0.17;;;9.10;99.90;;;;;;5104160;28;20057;-72
2023/12/18 07:18:33;;;;;;;0.10;0.10;;;9.10;99.90;;;;;;5095711;28;20043;-72
2023/12/18 07:20:59;;;;;;;0.20;0.20;;;9.10;99.90;;;;;;5101178;28;20050;-73
2023/12/18 07:23:25;;;;;;;0.13;0.13;;;9.10;99.90;;;;;;5111454;28;20035;-72
2023/12/18 07:25:51;;;;;;;0.20;0.20;;;9.10;99.90;;;;;;5107795;28;20048;-72
2023/12/18 07:28:17;;;;;;;0.17;0.17;;;9.10;99.90;;;;;;5126191;27;20054;-72
2023/12/18 07:30:42;;;;;;;0.20;0.20;;;9.10;99.90;;;;;;5101300;28;20043;-72
2023/12/18 07:33:08;;;;;;;0.20;0.20;;;9.10;99.90;;;;;;5096376;27;20043;-72
2023/12/18 07:35:34;;;;;;;0.20;0.20;;;9.10;99.90;;;;;;5112589;27;20043;-73
2023/12/18 07:37:59;;;;;;;0.10;0.10;;;9.10;99.90;;;;;;5113271;27;20043;-71
2023/12/18 07:40:25;;;;;;;0.20;0.20;;;9.10;99.90;;;;;;5111438;27;20134;-72
2023/12/18 07:42:50;;;;;;;0.20;0.20;;;9.10;99.90;;;;;;5093763;28;20040;-71
2023/12/18 07:45:17;;;;;;;0.20;0.20;;;9.10;99.90;;;;;;5095156;28;20073;-72
2023/12/18 07:47:43;;;;;;;0.20;0.20;;;9.10;99.90;;;;;;5099567;28;20047;-73
2023/12/18 07:50:09;;;;;;;0.20;0.20;;;9.10;99.90;;;;;;5103181;28;20407;-72
2023/12/18 07:52:35;;;;;;;0.20;0.20;;;9.10;99.90;;;;;;5099927;28;20057;-74
2023/12/18 07:55:01;;;;;;;0.20;0.20;;;9.10;99.90;;;;;;5097950;28;20479;-73
2023/12/18 07:57:27;;;;;;;0.20;0.20;;;9.10;99.90;;;;;;5092517;28;20071;-73
2023/12/18 07:59:54;;;;;;;0.15;0.15;;;9.10;99.90;;;;;;5122704;28;20085;-73
2023/12/18 08:02:20;;;;;;;0.10;0.10;;;9.00;99.90;;;;;;5109784;28;20274;-73
2023/12/18 08:04:46;;;;;;;0.20;0.20;;;9.10;99.90;;;;;;5106271;28;20036;-73
2023/12/18 08:07:11;;;;;;;0.20;0.20;;;9.10;99.90;;;;;;5092307;28;20051;-73
2023/12/18 08:09:37;;;;;;;0.20;0.20;;;9.10;99.90;;;;;;5097383;28;20115;-74
2023/12/18 08:12:03;;;;;;;0.20;0.20;;;9.10;99.90;;;;;;5100655;28;20046;-73
2023/12/18 08:14:29;;;;;;;0.20;0.20;;;9.10;99.90;;;;;;5094970;28;20112;-74
2023/12/18 08:16:54;;;;;;;0.20;0.20;;;9.10;99.90;;;;;;5113086;28;20069;-74
2023/12/18 08:19:20;;;;;;;0.20;0.20;;;9.10;99.90;;;;;;5107633;28;20123;-74
2023/12/18 08:21:46;;;;;;;0.10;0.10;;;9.10;99.90;;;;;;5106675;28;20050;-74
2023/12/18 08:24:11;;;;;;;0.20;0.20;;;9.20;99.90;;;;;;5095989;28;20047;-75
2023/12/18 08:26:37;;;;;;;0.20;0.20;;;9.20;99.90;;;;;;5123415;28;20062;-74
2023/12/18 08:29:04;;;;;;;0.10;0.10;;;9.20;99.90;;;;;;5096125;28;20040;-74
2023/12/18 08:31:30;;;;;;;0.20;0.20;;;9.20;99.90;;;;;;5115396;27;20503;-73
2023/12/18 08:33:56;;;;;;;0.20;0.20;;;9.20;99.90;;;;;;5107435;28;20122;-73
2023/12/18 08:36:21;;;;;;;0.20;0.20;;;9.20;99.90;;;;;;5103788;28;20040;-73
2023/12/18 08:38:47;;;;;;;0.20;0.20;;;9.20;99.90;;;;;;5095645;28;20055;-74
2023/12/18 08:41:12;;;;;;;0.10;0.10;;;9.20;99.90;;;;;;5108789;27;20046;-74
2023/12/18 08:43:38;;;;;;;0.20;0.20;;;9.20;99.90;;;;;;5108649;28;20059;-74
2023/12/18 08:46:04;;;;;;;0.20;0.20;;;9.20;99.90;;;;;;5095472;28;20131;-74
2023/12/18 08:48:29;;;;;;;0.20;0.20;;;9.20;99.90;;;;;;5103868;28;20090;-74
2023/12/18 08:50:55;;;;;;;0.10;0.10;;;9.20;99.90;;;;;;5099411;27;20042;-74
2023/12/18 08:53:21;;;;;;;0.20;0.20;;;9.20;99.90;;;;;;5112272;28;20141;-74
2023/12/18 08:55:47;;;;;;;0.20;0.20;;;9.20;99.90;;;;;;5111918;27;20506;-74
2023/12/18 08:58:12;;;;;;;0.20;0.20;;;9.20;99.90;;;;;;5097001;28;20039;-74
2023/12/18 09:00:38;;;;;;;0.20;0.20;;;9.20;99.90;;;;;;5123698;27;20043;-74
2023/12/18 09:03:04;;;;;;;0.10;0.10;;;9.30;99.90;;;;;;5121224;27;20047;-74
2023/12/18 09:05:30;;;;;;;0.20;0.20;;;9.30;99.90;;;;;;5112476;28;20096;-74
2023/12/18 09:07:56;;;;;;;0.20;0.20;;;9.30;99.90;;;;;;5097393;28;20050;-74
2023/12/18 09:10:22;;;;;;;0.20;0.20;;;9.30;99.90;;;;;;5100885;28;20040;-74
2023/12/18 09:12:49;;;;;;;0.20;0.20;;;9.30;99.90;;;;;;5115514;27;20048;-74
2023/12/18 09:15:16;;;;;;;0.20;0.20;;;9.30;99.90;;;;;;5094329;28;20081;-74
2023/12/18 09:17:41;;;;;;;0.17;0.17;;;9.30;99.90;;;;;;5097052;28;20062;-74
2023/12/18 09:20:07;;;;;;;0.20;0.20;;;9.40;99.90;;;;;;5094763;28;20044;-74
2023/12/18 09:22:33;;;;;;;0.10;0.10;;;9.40;99.90;;;;;;5095626;28;20286;-75
2023/12/18 09:24:59;;;;;;;0.20;0.20;;;9.40;99.90;;;;;;5092992;28;20051;-74
2023/12/18 09:27:24;;;;;;;0.20;0.20;;;9.40;99.90;;;;;;5096532;28;20044;-74
2023/12/18 09:29:50;;;;;;;0.20;0.20;;;9.40;99.90;;;;;;5093964;28;20042;-75
2023/12/18 09:32:16;;;;;;;0.20;0.20;;;9.40;99.90;;;;;;5096566;28;20048;-74
2023/12/18 09:34:42;;;;;;;0.20;0.20;;;9.50;99.90;;;;;;5121620;27;20459;-75
2023/12/18 09:37:07;;;;;;;0.20;0.20;;;9.50;99.90;;;;;;5108788;27;20105;-74
2023/12/18 09:39:33;;;;;;;0.17;0.17;;;9.50;99.90;;;;;;5101563;28;20082;-74
2023/12/18 09:42:04;;;;;;;0.10;0.10;;;9.50;99.90;;;;;;5093832;28;20059;-74
2023/12/18 09:44:33;;;;;;;0.20;0.20;;;9.50;99.90;;;;;;5095320;28;20536;-75
2023/12/18 09:47:00;;;;;;;0.10;0.10;;;9.50;99.90;;;;;;5096866;28;20055;-75
2023/12/18 09:49:26;;;;;;;0.10;0.10;;;9.60;99.90;;;;;;5095659;28;20050;-74
2023/12/18 09:52:00;;;;;;;0.20;0.20;;;9.60;99.90;;;;;;5094073;28;20055;-74
2023/12/18 09:54:27;;;;;;;0.20;0.20;;;9.60;99.90;;;;;;5108070;28;20039;-74
2023/12/18 09:56:55;;;;;;;0.20;0.20;;;9.60;99.90;;;;;;5097183;27;20474;-74
2023/12/18 09:59:21;;;;;;;0.20;0.20;;;9.60;99.90;;;;;;5110952;28;20035;-74
2023/12/18 10:01:48;;;;;;;0.20;0.20;;;9.60;99.90;;;;;;5112889;28;20512;-74
2023/12/18 10:04:13;;;;;;;0.20;0.20;;;9.60;99.90;;;;;;5103360;27;20104;-75
2023/12/18 10:06:40;;;;;;;0.20;0.20;;;9.60;99.90;;;;;;5113805;27;20035;-75
2023/12/18 10:09:13;;;;;;;0.20;0.20;;;9.50;99.90;;;;;;5108407;28;20437;-74
2023/12/18 10:11:41;;;;;;;0.20;0.20;;;9.50;99.90;;;;;;5093391;28;20457;-74
2023/12/18 10:14:07;;;;;;;0.10;0.10;;;9.50;99.90;;;;;;5120125;27;20391;-74
2023/12/18 10:16:32;;;;;;;0.10;0.10;;;9.50;99.90;;;;;;5111510;27;20047;-75
2023/12/18 10:18:58;;;;;;;0.10;0.10;;;9.50;99.90;;;;;;5106674;27;20039;-75
2023/12/18 10:21:25;;;;;;;0.10;0.10;;;9.60;99.90;;;;;;5113114;27;20530;-74
2023/12/18 10:23:54;;;;;;;0.10;0.10;;;9.60;99.90;;;;;;5109073;28;20032;-74
2023/12/18 10:26:20;;;;;;;0.20;0.20;;;9.50;99.90;;;;;;5092619;28;20071;-74
2023/12/18 10:28:48;;;;;;;0.20;0.20;;;9.50;99.90;;;;;;5094447;28;20047;-75
2023/12/18 10:31:14;;;;;;;0.17;0.17;;;9.60;99.90;;;;;;5093567;27;20402;-74
2023/12/18 10:33:41;;;;;;;0.10;0.10;;;9.50;99.90;;;;;;5112125;27;20047;-74
2023/12/18 10:36:08;;;;;;;0.20;0.20;;;9.50;99.90;;;;;;5109548;28;20042;-74
2023/12/18 10:38:37;;;;;;;0.17;0.17;;;9.60;99.90;;;;;;5093677;28;20036;-73
2023/12/18 10:41:04;;;;;;;0.10;0.10;;;9.60;99.90;;;;;;5093955;28;20122;-73
2023/12/18 10:43:33;;;;;;;0.13;0.13;;;9.50;99.90;;;;;;5096424;27;20055;-72
2023/12/18 10:46:02;;;;;;;0.10;0.10;;;9.50;99.90;;;;;;5094222;28;20067;-75
2023/12/18 10:48:28;;;;;;;0.20;0.20;;;9.60;99.90;;;;;;5115169;27;20068;-73
2023/12/18 10:50:56;;;;;;;0.20;0.20;;;9.50;99.90;;;;;;5103613;28;20043;-73
2023/12/18 10:53:23;;;;;;;0.10;0.10;;;9.50;99.90;;;;;;5092982;28;20054;-73
2023/12/18 10:55:49;;;;;;;0.20;0.20;;;9.50;99.90;;;;;;5094942;28;20039;-73
2023/12/18 10:58:17;;;;;;;0.20;0.20;;;9.50;99.90;;;;;;5097350;27;20046;-73
2023/12/18 11:00:44;;;;;;;0.10;0.10;;;9.50;99.90;;;;;;5107874;28;20442;-73
2023/12/18 11:03:11;;;;;;;0.20;0.20;;;9.50;99.90;;;;;;5102355;27;20042;-73
2023/12/18 11:05:37;;;;;;;0.20;0.20;;;9.50;99.90;;;;;;5102473;28;20043;-74
2023/12/18 11:08:03;;;;;;;0.20;0.20;;;9.50;99.90;;;;;;5092037;28;20121;-72
2023/12/18 11:10:29;;;;;;;0.20;0.20;;;9.50;99.90;;;;;;5092325;28;20441;-72
2023/12/18 11:13:10;;;;;;;0.10;0.10;;;9.50;99.90;;;;;;5099531;28;20043;-73
2023/12/18 11:16:18;;;;;;;0.20;0.20;;;9.50;99.90;;;;;;5100225;27;20031;-73
2023/12/18 11:18:50;;;;;;;0.20;0.20;;;9.40;99.90;;;;;;5118566;27;20122;-72
2023/12/18 11:21:16;;;;;;;0.10;0.10;;;9.40;99.90;;;;;;5098137;28;20550;-73
2023/12/18 11:23:42;;;;;;;0.10;0.10;;;9.50;99.90;;;;;;5103451;28;20118;-72
2023/12/18 11:26:12;;;;;;;0.10;0.10;;;9.40;99.90;;;;;;5100143;27;20138;-72
2023/12/18 11:28:38;;;;;;;0.20;0.20;;;9.50;99.90;;;;;;5124295;27;20432;-72
2023/12/18 11:31:06;;;;;;;0.20;0.20;;;9.50;99.90;;;;;;5109289;28;20058;-73
2023/12/18 11:33:32;;;;;;;0.20;0.20;;;9.50;99.90;;;;;;5114402;27;20502;-73
2023/12/18 11:35:57;;;;;;;0.35;0.28;;;9.50;99.90;;;;;;5106835;28;20035;-74
2023/12/18 11:38:27;;;;;;;0.10;0.10;;;9.50;99.90;;;;;;5096051;28;20055;-73
2023/12/18 11:40:55;;;;;;;0.20;0.20;;;9.50;99.90;;;;;;5097667;28;20446;-73
2023/12/18 11:43:36;;;;;;;0.10;0.10;;;9.50;99.90;;;;;;5111309;28;20051;-72
2023/12/18 11:46:04;;;;;;;0.10;0.10;;;9.50;99.90;;;;;;5109653;28;20062;-72
2023/12/18 11:48:31;;;;;;;0.20;0.20;;;9.50;99.90;;;;;;5100000;28;20495;-72
2023/12/18 11:50:57;;;;;;;0.20;0.20;;;9.50;99.90;;;;;;5095422;28;20042;-72
2023/12/18 11:53:22;;;;;;;0.20;0.20;;;9.50;99.90;;;;;;5097741;28;20040;-72
2023/12/18 11:55:57;;;;;;;0.20;0.20;;;9.50;99.90;;;;;;5122641;28;20040;-72
2023/12/18 11:58:27;;;;;;;0.20;0.20;;;9.50;99.90;;;;;;5103140;28;20043;-73
2023/12/18 12:00:55;;;;;;;0.10;0.10;;;9.50;99.90;;;;;;5092276;28;20044;-73
2023/12/18 12:03:22;;;;;;;0.15;0.15;;;9.50;99.90;;;;;;5113131;27;20482;-72
2023/12/18 12:05:49;;;;;;;0.15;0.15;;;9.50;99.90;;;;;;5110991;28;20047;-73
2023/12/18 12:08:15;;;;;;;0.10;0.10;;;9.60;99.90;;;;;;5096622;28;20056;-73
2023/12/18 12:10:43;;;;;;;0.20;0.20;;;9.60;99.90;;;;;;5116408;27;20043;-73
2023/12/18 12:13:17;;;;;;;0.10;0.10;;;9.50;99.90;;;;;;5112541;28;20044;-73
2023/12/18 12:15:55;;;;;;;0.20;0.20;;;9.60;99.90;;;;;;5106972;27;20569;-73
2023/12/18 12:18:22;;;;;;;0.10;0.10;;;9.50;99.90;;;;;;5116564;27;20057;-73
2023/12/18 12:20:47;;;;;;;0.20;0.20;;;9.60;99.90;;;;;;5117414;27;20043;-73
2023/12/18 12:23:13;;;;;;;0.20;0.20;;;9.60;99.90;;;;;;5135192;27;20059;-73
2023/12/18 12:25:39;;;;;;;0.20;0.20;;;9.60;99.90;;;;;;5114544;27;20431;-72
2023/12/18 12:28:06;;;;;;;0.10;0.10;;;9.60;99.90;;;;;;5116473;27;20039;-73
2023/12/18 12:30:32;;;;;;;0.20;0.20;;;9.60;99.90;;;;;;5108480;28;20442;-73
2023/12/18 12:32:58;;;;;;;0.20;0.20;;;9.60;99.90;;;;;;5111299;28;20435;-72
2023/12/18 12:35:25;;;;;;;0.10;0.10;;;9.60;99.90;;;;;;5096469;28;20205;-72
2023/12/18 12:37:50;;;;;;;0.20;0.20;;;9.70;99.90;;;;;;5095538;28;20515;-73
2023/12/18 12:40:16;;;;;;;0.20;0.20;;;9.70;99.90;;;;;;5094153;28;20047;-72
2023/12/18 12:42:43;;;;;;;0.10;0.10;;;9.70;99.90;;;;;;5096817;28;20403;-73
2023/12/18 12:45:10;;;;;;;0.10;0.10;;;9.80;99.90;;;;;;5094671;28;20051;-73
2023/12/18 12:47:38;;;;;;;0.10;0.10;;;9.70;99.90;;;;;;5125729;27;20109;-73
2023/12/18 12:50:06;;;;;;;0.20;0.20;;;9.80;99.90;;;;;;5112579;28;20493;-73
2023/12/18 12:52:37;;;;;;;0.10;0.10;;;9.80;99.90;;;;;;5105092;28;20051;-72